Time;durP1;ratioP1;P1;durP2;ratioP2;P2;SDS_P1;SDS_P2;PMS_P1;PMS_P2;Temp;Humidity;BMP_temperature;BMP_pressure;BME280_temperature;BME280_humidity;BME280_pressure;Samples;Min_cycle;Max_cycle;Signal;HPM_P1;HPM_P2
2022/12/23 02:16:26;;;;;;;8.05;4.50;;;;;;;2.83;100.00;100419.61;1809549;77;21934;-85
2022/12/23 02:19:13;;;;;;;9.08;3.55;;;;;;;2.92;100.00;100416.89;1757294;80;20990;-85
2022/12/23 02:22:25;;;;;;;7.10;4.08;;;;;;;2.99;100.00;100425.72;1767073;80;21003;-87
2022/12/23 02:25:37;;;;;;;10.75;4.53;;;;;;;3.03;100.00;100423.37;1652179;81;21110;-86
2022/12/23 02:28:48;;;;;;;8.35;3.47;;;;;;;3.11;100.00;100418.98;1687586;85;21038;-86
2022/12/23 02:32:01;;;;;;;6.25;4.05;;;;;;;3.17;100.00;100419.96;1751406;80;21449;-87
2022/12/23 02:35:07;;;;;;;9.10;4.63;;;;;;;3.19;100.00;100418.67;1745543;80;21067;-86
2022/12/23 02:38:08;;;;;;;9.28;4.65;;;;;;;3.26;100.00;100415.84;1710734;82;21008;-88
2022/12/23 02:41:23;;;;;;;10.40;4.43;;;;;;;3.25;100.00;100414.22;1734435;80;20918;-87
2022/12/23 02:44:13;;;;;;;8.73;4.22;;;;;;;3.17;100.00;100418.61;1716548;81;21489;-87
2022/12/23 02:47:05;;;;;;;5.90;3.70;;;;;;;3.16;100.00;100413.71;1724646;82;21033;-86
2022/12/23 02:49:53;;;;;;;10.75;4.42;;;;;;;3.20;100.00;100412.73;1722518;82;21431;-86
2022/12/23 02:52:38;;;;;;;10.15;3.92;;;;;;;3.23;100.00;100406.87;1715546;82;21018;-86
2022/12/23 02:55:27;;;;;;;6.67;4.25;;;;;;;3.28;100.00;100413.75;1739409;80;21020;-87
2022/12/23 02:58:12;;;;;;;8.95;4.00;;;;;;;3.29;100.00;100411.36;1739259;81;21024;-87
2022/12/23 03:00:57;;;;;;;8.93;4.28;;;;;;;3.27;100.00;100419.40;1737629;80;21014;-87
2022/12/23 03:03:41;;;;;;;7.80;3.55;;;;;;;3.25;100.00;100406.11;1698197;81;21074;-87
2022/12/23 03:06:30;;;;;;;11.70;4.35;;;;;;;3.20;100.00;100413.55;1740568;81;21005;-86
2022/12/23 03:09:39;;;;;;;7.85;4.45;;;;;;;3.18;100.00;100405.39;1731997;81;20973;-87
2022/12/23 03:12:47;;;;;;;10.48;4.17;;;;;;;3.18;100.00;100420.24;1701772;82;21021;-86
2022/12/23 03:15:40;;;;;;;5.65;3.40;;;;;;;3.17;100.00;100406.46;1737845;80;21504;-86
2022/12/23 03:18:34;;;;;;;;;;;;;;;3.19;100.00;100403.83;1734691;81;21052;-86
2022/12/23 03:21:27;;;;;;;10.82;4.50;;;;;;;3.19;100.00;100397.58;1745546;81;20938;-85
2022/12/23 03:24:41;;;;;;;9.43;4.35;;;;;;;3.23;100.00;100393.36;1734591;81;21525;-85
2022/12/23 03:27:30;;;;;;;9.90;5.12;;;;;;;3.21;100.00;100399.52;1733821;79;21509;-87
2022/12/23 03:30:18;;;;;;;8.63;4.50;;;;;;;3.28;100.00;100394.84;1704542;81;21021;-85
2022/12/23 03:33:07;;;;;;;8.25;4.80;;;;;;;3.30;100.00;100391.38;1712284;82;21007;-86
2022/12/23 03:36:02;;;;;;;9.75;4.50;;;;;;;3.30;100.00;100388.68;1720482;82;21454;-86
2022/12/23 03:38:47;;;;;;;7.72;4.28;;;;;;;3.30;100.00;100388.68;1705179;82;21030;-86
2022/12/23 03:41:37;;;;;;;8.40;4.75;;;;;;;3.31;100.00;100384.91;1733321;80;21053;-87
2022/12/23 03:44:27;;;;;;;9.03;4.37;;;;;;;3.37;100.00;100392.09;1706814;82;21138;-86
2022/12/23 03:47:19;;;;;;;9.90;4.25;;;;;;;3.38;100.00;100398.32;1734712;82;21010;-87
2022/12/23 03:50:07;;;;;;;9.10;5.20;;;;;;;3.39;100.00;100394.05;1705193;81;21034;-86
2022/12/23 03:53:03;;;;;;;8.55;4.37;;;;;;;3.47;100.00;100393.41;1721650;82;21019;-86
2022/12/23 03:55:55;;;;;;;5.95;3.62;;;;;;;3.51;100.00;100393.22;1732354;81;21591;-87
2022/12/23 03:58:48;;;;;;;7.35;3.83;;;;;;;3.58;100.00;100394.74;1724479;81;20977;-87
2022/12/23 04:01:50;;;;;;;9.28;4.40;;;;;;;3.68;100.00;100397.40;1715110;82;21015;-87
2022/12/23 04:04:57;;;;;;;7.83;4.47;;;;;;;3.72;100.00;100395.88;1715782;82;21002;-87
2022/12/23 04:08:02;;;;;;;7.05;3.87;;;;;;;3.79;100.00;100399.30;1719823;81;21081;-87
2022/12/23 04:10:47;;;;;;;8.53;4.37;;;;;;;3.82;100.00;100390.17;1733831;80;21106;-86
2022/12/23 04:13:32;;;;;;;6.47;3.90;;;;;;;3.86;100.00;100398.11;1721469;82;21010;-86
2022/12/23 04:16:17;;;;;;;6.53;3.87;;;;;;;3.92;100.00;100391.45;1727688;80;21474;-86
2022/12/23 04:19:01;;;;;;;9.35;4.97;;;;;;;4.03;100.00;100382.49;1735180;80;20998;-87
2022/12/23 04:21:46;;;;;;;8.43;4.62;;;;;;;4.02;100.00;100385.73;1701931;82;20942;-86
2022/12/23 04:24:31;;;;;;;8.25;4.40;;;;;;;4.06;100.00;100375.28;1754152;80;21069;-87
2022/12/23 04:27:16;;;;;;;8.08;4.55;;;;;;;4.15;100.00;100373.83;1756245;81;20967;-87
2022/12/23 04:30:00;;;;;;;9.25;5.12;;;;;;;4.21;100.00;100372.08;1738174;80;21058;-87
2022/12/23 04:32:44;;;;;;;8.88;4.58;;;;;;;4.33;100.00;100374.72;1740457;82;21017;-86
2022/12/23 04:35:30;;;;;;;11.20;5.03;;;;;;;4.34;100.00;100375.03;1728797;80;21001;-86
2022/12/23 04:38:14;;;;;;;8.08;4.15;;;;;;;4.40;100.00;100375.41;1707124;83;21003;-86
2022/12/23 04:40:59;;;;;;;8.38;4.53;;;;;;;4.34;100.00;100374.50;1743680;82;21537;-86
2022/12/23 04:43:43;;;;;;;9.55;4.78;;;;;;;4.45;100.00;100376.86;1745782;82;21025;-86
2022/12/23 04:46:28;;;;;;;9.25;4.92;;;;;;;4.50;100.00;100375.61;1744079;80;21008;-87
2022/12/23 04:49:12;;;;;;;8.45;5.03;;;;;;;4.59;100.00;100366.05;1759934;80;21000;-86
2022/12/23 04:51:57;;;;;;;9.35;4.33;;;;;;;4.49;100.00;100362.61;1753632;81;21516;-86
2022/12/23 04:54:42;;;;;;;8.65;4.37;;;;;;;4.44;100.00;100363.05;1758145;79;21465;-87
2022/12/23 04:57:26;;;;;;;8.90;4.75;;;;;;;4.49;100.00;100376.69;1728642;82;21033;-86
2022/12/23 05:00:11;;;;;;;8.18;4.12;;;;;;;4.55;100.00;100374.38;1737051;80;21009;-86
2022/12/23 05:02:56;;;;;;;7.45;4.42;;;;;;;4.57;100.00;100368.17;1742739;81;21019;-86
2022/12/23 05:05:43;;;;;;;8.33;5.40;;;;;;;4.55;100.00;100362.20;1758584;79;21049;-85
2022/12/23 05:08:28;;;;;;;10.50;4.72;;;;;;;4.49;100.00;100375.33;1741445;81;21049;-86
2022/12/23 05:11:13;;;;;;;7.83;4.92;;;;;;;4.49;100.00;100366.67;1756408;80;20984;-86
2022/12/23 05:13:57;;;;;;;11.00;5.30;;;;;;;4.58;100.00;100368.48;1731507;82;22424;-86
2022/12/23 05:16:41;;;;;;;9.65;5.33;;;;;;;4.66;100.00;100372.14;1733418;82;21413;-86
2022/12/23 05:19:26;;;;;;;11.10;4.87;;;;;;;4.70;100.00;100374.66;1707917;81;21011;-86
2022/12/23 05:22:10;;;;;;;9.40;5.30;;;;;;;4.74;100.00;100371.73;1708136;79;21064;-85
2022/12/23 05:24:55;;;;;;;10.03;5.53;;;;;;;4.71;100.00;100377.64;1749751;81;21505;-86
2022/12/23 05:27:39;;;;;;;7.22;4.90;;;;;;;4.65;100.00;100373.22;1736036;81;21002;-87
2022/12/23 05:30:24;;;;;;;7.12;5.10;;;;;;;4.61;100.00;100378.81;1734479;80;20906;-86
2022/12/23 05:33:08;;;;;;;8.38;4.15;;;;;;;4.55;100.00;100393.33;1743500;80;21795;-86
2022/12/23 05:35:53;;;;;;;6.33;4.15;;;;;;;4.64;100.00;100392.39;1756696;81;21056;-85
2022/12/23 05:38:38;;;;;;;10.20;4.75;;;;;;;4.67;100.00;100398.16;1703020;82;21062;-86
2022/12/23 05:41:22;;;;;;;7.05;4.15;;;;;;;4.63;100.00;100400.23;1747623;80;20998;-86
2022/12/23 05:44:07;;;;;;;8.98;4.33;;;;;;;4.60;100.00;100402.89;1749955;80;21526;-85
2022/12/23 05:46:52;;;;;;;8.35;4.35;;;;;;;4.64;100.00;100405.92;1747324;81;21038;-86
2022/12/23 05:49:37;;;;;;;8.58;4.55;;;;;;;4.61;100.00;100412.64;1725773;81;20996;-86
2022/12/23 05:52:21;;;;;;;7.10;4.55;;;;;;;4.60;100.00;100417.78;1758447;81;21414;-86
2022/12/23 05:55:07;;;;;;;8.13;4.33;;;;;;;4.63;100.00;100422.70;1728558;81;21072;-86
2022/12/23 08:06:11;;;;;;;20.30;9.75;;;;;;;2.59;100.00;100445.12;1813807;77;28948;-85
2022/12/23 08:08:56;;;;;;;20.32;11.05;;;;;;;2.94;100.00;100448.53;1750118;80;21021;-86
2022/12/23 08:11:40;;;;;;;14.47;8.08;;;;;;;3.38;100.00;100446.41;1755236;81;21033;-85
2022/12/23 08:14:25;;;;;;;13.65;7.25;;;;;;;3.62;100.00;100445.11;1762686;80;21076;-84
2022/12/23 08:17:10;;;;;;;16.32;8.00;;;;;;;3.91;100.00;100444.72;1748053;78;21005;-85
2022/12/23 08:19:55;;;;;;;18.55;8.28;;;;;;;4.05;100.00;100435.81;1751864;80;21002;-85
2022/12/23 08:22:40;;;;;;;15.80;7.90;;;;;;;4.29;100.00;100435.27;1744235;78;21520;-85
2022/12/23 08:25:25;;;;;;;11.80;7.10;;;;;;;4.47;100.00;100432.38;1752077;78;20988;-85
2022/12/23 08:28:09;;;;;;;17.95;7.70;;;;;;;4.61;100.00;100426.72;1752431;80;20968;-85
2022/12/23 08:30:54;;;;;;;12.93;6.97;;;;;;;4.68;100.00;100424.16;1734566;80;20999;-85
2022/12/23 08:33:40;;;;;;;13.30;7.33;;;;;;;4.84;100.00;100416.32;1721264;80;21826;-86
2022/12/23 08:36:27;;;;;;;11.88;7.12;;;;;;;4.93;100.00;100413.52;1739208;80;21433;-85
2022/12/23 08:39:12;;;;;;;14.45;6.97;;;;;;;4.94;100.00;100412.44;1727574;80;21410;-84
2022/12/23 08:41:58;;;;;;;9.80;7.05;;;;;;;4.99;100.00;100413.07;1730454;81;21003;-84
2022/12/23 08:44:42;;;;;;;11.53;7.08;;;;;;;5.02;100.00;100410.72;1738860;80;21109;-85
2022/12/23 08:47:27;;;;;;;13.22;7.30;;;;;;;5.06;100.00;100417.27;1743121;80;21100;-84
2022/12/23 08:50:11;;;;;;;12.90;6.87;;;;;;;5.20;100.00;100412.91;1735775;80;21099;-85
2022/12/23 08:52:56;;;;;;;11.03;7.03;;;;;;;5.30;100.00;100408.48;1677557;83;21014;-86
2022/12/23 08:55:44;;;;;;;11.90;6.80;;;;;;;5.34;100.00;100411.00;1728073;80;20972;-86
2022/12/23 08:58:28;;;;;;;13.53;6.78;;;;;;;5.41;100.00;100408.11;1737528;80;21498;-86
2022/12/23 09:01:15;;;;;;;10.30;6.08;;;;;;;5.37;100.00;100400.20;1743751;80;21054;-86
2022/12/23 09:04:03;;;;;;;14.63;7.58;;;;;;;5.41;100.00;100393.73;1722056;81;21077;-86
2022/12/23 09:06:48;;;;;;;13.35;6.53;;;;;;;5.41;100.00;100389.14;1741914;79;20996;-85
2022/12/23 09:09:33;;;;;;;13.18;6.65;;;;;;;5.49;100.00;100391.97;1733177;81;21033;-86
2022/12/23 09:12:18;;;;;;;12.35;7.40;;;;;;;5.48;100.00;100387.09;1731819;80;21057;-86
2022/12/23 09:15:03;;;;;;;10.18;6.12;;;;;;;5.53;100.00;100385.80;1693405;83;21052;-86
2022/12/23 09:17:47;;;;;;;15.25;7.40;;;;;;;5.56;100.00;100391.27;1693376;84;21070;-87
2022/12/23 09:20:34;;;;;;;15.50;7.60;;;;;;;5.62;100.00;100394.90;1690807;84;21066;-86
2022/12/23 09:23:21;;;;;;;13.43;7.40;;;;;;;5.67;100.00;100393.63;1678541;83;20947;-86
2022/12/23 09:26:07;;;;;;;12.78;7.40;;;;;;;5.76;100.00;100391.59;1734279;81;21005;-86
2022/12/23 09:28:52;;;;;;;12.20;6.47;;;;;;;5.84;100.00;100395.77;1688014;84;21596;-86
2022/12/23 09:31:37;;;;;;;13.40;6.65;;;;;;;5.86;100.00;100392.28;1731257;81;21014;-86
2022/12/23 09:34:22;;;;;;;11.70;6.45;;;;;;;5.88;100.00;100394.18;1739165;80;21580;-86
2022/12/23 09:37:06;;;;;;;13.83;7.28;;;;;;;5.88;100.00;100386.59;1729970;81;21765;-86
2022/12/23 09:39:51;;;;;;;10.43;7.12;;;;;;;5.87;100.00;100380.34;1737542;82;21038;-86
2022/12/23 09:43:15;;;;;;;12.45;7.67;;;;;;;5.87;100.00;100377.64;1738337;80;21042;-86
2022/12/23 09:46:19;;;;;;;10.23;6.42;;;;;;;5.84;100.00;100380.04;1739949;82;21006;-86
2022/12/23 09:49:14;;;;;;;11.50;6.35;;;;;;;5.82;100.00;100374.86;1734817;81;21430;-85
2022/12/23 09:52:04;;;;;;;14.47;6.47;;;;;;;5.82;100.00;100362.66;1737232;80;20975;-85
2022/12/23 09:54:51;;;;;;;13.53;6.97;;;;;;;5.80;100.00;100362.89;1688951;84;21422;-85
2022/12/23 09:57:57;;;;;;;14.35;7.22;;;;;;;5.82;100.00;100355.87;1730008;82;21011;-85
2022/12/23 10:00:45;;;;;;;12.63;7.15;;;;;;;5.86;100.00;100360.25;1727228;81;21002;-86
2022/12/23 10:03:59;;;;;;;13.83;7.30;;;;;;;5.85;100.00;100364.86;1734430;82;20967;-86
2022/12/23 10:06:44;;;;;;;13.95;7.00;;;;;;;5.87;100.00;100368.14;1729179;81;21057;-85
2022/12/23 10:09:31;;;;;;;12.55;7.03;;;;;;;5.93;100.00;100371.20;1734762;80;21034;-85
2022/12/23 10:12:24;;;;;;;13.75;7.65;;;;;;;6.03;100.00;100364.61;1665037;84;21013;-86
2022/12/23 10:15:37;;;;;;;13.70;7.40;;;;;;;6.12;100.00;100365.52;1664371;84;21432;-86
2022/12/23 10:18:27;;;;;;;13.28;7.40;;;;;;;6.19;100.00;100358.83;1655364;84;21083;-86
2022/12/23 10:21:34;;;;;;;12.88;7.10;;;;;;;6.20;100.00;100365.07;1663149;84;21049;-86
2022/12/23 10:24:29;;;;;;;10.72;6.20;;;;;;;6.23;100.00;100365.91;1696369;82;22089;-86
2022/12/23 10:27:34;;;;;;;13.50;7.15;;;;;;;6.30;100.00;100367.91;1725539;81;21000;-86
2022/12/23 10:30:22;;;;;;;13.03;6.60;;;;;;;6.28;100.00;100364.65;1704376;82;21018;-86
2022/12/23 10:33:25;;;;;;;12.65;7.22;;;;;;;6.31;100.00;100365.49;1720187;82;20972;-85
2022/12/23 10:36:30;;;;;;;11.20;6.65;;;;;;;6.35;100.00;100362.53;1655495;85;20990;-86
2022/12/23 10:39:21;;;;;;;12.58;7.03;;;;;;;6.46;100.00;100357.52;1736266;80;21485;-85
2022/12/23 10:42:11;;;;;;;12.35;7.00;;;;;;;6.51;100.00;100358.66;1739618;81;21025;-86
2022/12/23 10:45:07;;;;;;;16.37;7.85;;;;;;;6.54;100.00;100353.53;1731084;81;21057;-86
2022/12/23 10:48:28;;;;;;;12.15;6.50;;;;;;;6.56;100.00;100339.17;1702747;82;21008;-86
2022/12/23 10:51:18;;;;;;;13.85;6.90;;;;;;;6.43;100.00;100347.72;1728727;81;21440;-85
2022/12/23 10:54:07;;;;;;;14.93;6.47;;;;;;;6.48;100.00;100347.78;1728680;81;21013;-85
2022/12/23 10:56:52;;;;;;;12.45;7.17;;;;;;;6.48;100.00;100353.72;1682832;83;21277;-85
2022/12/23 10:59:37;;;;;;;11.88;6.28;;;;;;;6.43;100.00;100359.39;1687105;83;21089;-86
2022/12/23 11:02:42;;;;;;;12.93;6.60;;;;;;;6.37;100.00;100354.97;1733481;80;22001;-85
2022/12/23 11:05:27;;;;;;;13.28;6.53;;;;;;;6.31;100.00;100346.50;1736168;81;21710;-86
2022/12/23 11:08:11;;;;;;;12.43;6.62;;;;;;;6.30;100.00;100354.88;1726304;81;21018;-89
2022/12/23 11:10:56;;;;;;;13.50;6.80;;;;;;;6.27;100.00;100352.13;1733073;80;21446;-89
2022/12/23 11:13:43;;;;;;;10.58;6.00;;;;;;;6.26;100.00;100346.44;1703052;82;21030;-89
2022/12/23 11:16:29;;;;;;;12.70;5.90;;;;;;;6.27;100.00;100345.36;1719838;81;20995;-90
2022/12/23 11:19:14;;;;;;;10.82;6.28;;;;;;;6.32;100.00;100341.88;1736967;80;21853;-89
2022/12/23 11:21:59;;;;;;;13.32;6.72;;;;;;;6.29;100.00;100340.50;1736973;80;21015;-89
2022/12/23 11:24:44;;;;;;;13.72;6.95;;;;;;;6.24;100.00;100337.19;1736636;80;21057;-90
2022/12/23 11:27:29;;;;;;;12.15;6.47;;;;;;;6.17;100.00;100344.69;1731906;81;21017;-89
2022/12/23 11:30:18;;;;;;;12.43;6.80;;;;;;;6.13;100.00;100346.80;1735786;81;21418;-90
2022/12/23 11:33:03;;;;;;;14.55;6.67;;;;;;;6.11;100.00;100344.88;1698697;82;21046;-91
2022/12/23 11:35:48;;;;;;;13.48;6.60;;;;;;;6.09;100.00;100352.47;1729345;81;20998;-92
2022/12/23 11:38:35;;;;;;;14.90;7.12;;;;;;;6.06;100.00;100348.36;1654639;84;21039;-90
2022/12/23 11:41:21;;;;;;;15.40;7.58;;;;;;;6.12;100.00;100345.17;1743164;82;21053;-91
2022/12/23 11:44:27;;;;;;;15.20;7.90;;;;;;;6.17;100.00;100345.23;1735362;80;20987;-92
2022/12/23 11:47:31;;;;;;;14.55;7.25;;;;;;;6.20;100.00;100347.44;1672822;85;21465;-92
2022/12/23 11:50:35;;;;;;;14.07;7.15;;;;;;;6.14;100.00;100351.17;1687475;84;21512;-90
2022/12/23 11:53:23;;;;;;;14.03;7.45;;;;;;;6.11;100.00;100343.52;1670827;83;21047;-90
2022/12/23 11:56:14;;;;;;;12.33;6.92;;;;;;;5.97;100.00;100349.33;1676207;82;20979;-90
2022/12/23 14:05:45;;;;;;;15.40;6.97;;;;;;;1.75;100.00;100359.63;1804089;77;29374;-86
2022/12/23 14:08:40;;;;;;;19.10;8.45;;;;;;;1.70;100.00;100369.20;1792192;77;21122;-87
2022/12/23 14:11:27;;;;;;;17.95;8.83;;;;;;;1.80;100.00;100370.56;1769720;79;21014;-87
2022/12/23 14:14:22;;;;;;;13.00;6.60;;;;;;;1.85;100.00;100366.14;1819324;78;21011;-88
2022/12/23 14:17:18;;;;;;;15.72;6.60;;;;;;;1.86;100.00;100366.98;1770815;79;21010;-88
2022/12/23 14:20:23;;;;;;;15.08;7.12;;;;;;;1.85;100.00;100368.02;1726591;82;21446;-88
2022/12/23 14:23:34;;;;;;;16.40;7.17;;;;;;;1.97;100.00;100368.11;1725379;81;21030;-88
2022/12/23 14:26:25;;;;;;;12.23;6.42;;;;;;;2.10;100.00;100371.48;1722049;82;21954;-88
2022/12/23 14:29:40;;;;;;;12.03;6.30;;;;;;;2.10;100.00;100374.18;1726320;82;21009;-88
2022/12/23 14:32:28;;;;;;;15.65;7.05;;;;;;;2.07;100.00;100377.30;1774517;79;21030;-89
2022/12/23 14:35:32;;;;;;;17.45;8.48;;;;;;;2.09;100.00;100377.91;1786620;79;21058;-89
2022/12/23 14:38:27;;;;;;;15.28;7.45;;;;;;;2.10;100.00;100374.18;1775033;78;21034;-88
2022/12/23 14:41:24;;;;;;;17.00;7.80;;;;;;;2.09;100.00;100375.20;1733855;81;22045;-88
2022/12/23 14:44:36;;;;;;;15.55;7.47;;;;;;;2.04;100.00;100375.06;1729119;81;21438;-88
2022/12/23 14:47:32;;;;;;;13.30;7.10;;;;;;;2.04;100.00;100376.41;1712540;82;21475;-88
2022/12/23 14:50:40;;;;;;;16.87;8.28;;;;;;;2.04;100.00;100379.11;1748308;81;21372;-88
2022/12/23 14:53:26;;;;;;;17.17;8.70;;;;;;;2.03;100.00;100384.21;1695959;82;21074;-88
2022/12/23 14:56:19;;;;;;;16.17;8.13;;;;;;;1.96;100.00;100376.72;1714822;82;20936;-88
2022/12/23 14:59:38;;;;;;;15.90;7.12;;;;;;;1.93;100.00;100389.30;1706187;82;21503;-88
2022/12/23 15:02:32;;;;;;;15.60;7.80;;;;;;;1.89;100.00;100385.39;1753619;80;21001;-88
2022/12/23 15:05:17;;;;;;;13.05;6.90;;;;;;;1.89;100.00;100396.99;1765336;79;20992;-88
2022/12/23 15:08:01;;;;;;;12.23;6.42;;;;;;;1.88;100.00;100403.94;1693467;82;21034;-89
2022/12/23 15:10:46;;;;;;;17.95;8.50;;;;;;;1.87;100.00;100410.39;1714351;80;21105;-88
2022/12/23 15:13:31;;;;;;;28.30;11.83;;;;;;;1.72;100.00;100413.44;1769939;79;21066;-88
2022/12/23 15:16:16;;;;;;;27.02;11.53;;;;;;;1.65;100.00;100410.80;1742405;80;21023;-88
2022/12/23 15:19:18;;;;;;;27.10;12.25;;;;;;;1.60;100.00;100416.02;1775086;79;21470;-89
2022/12/23 15:22:07;;;;;;;38.95;16.85;;;;;;;1.53;100.00;100421.98;1781806;78;21083;-88
2022/12/23 15:24:52;;;;;;;36.13;16.70;;;;;;;1.43;100.00;100423.01;1774244;79;20987;-88
2022/12/23 15:27:36;;;;;;;29.95;14.63;;;;;;;1.35;100.00;100420.08;1762663;80;21506;-88
2022/12/23 15:30:21;;;;;;;29.77;13.50;;;;;;;1.28;100.00;100418.77;1713679;82;21344;-88
2022/12/23 15:33:06;;;;;;;28.98;14.68;;;;;;;1.24;100.00;100420.27;1784081;79;20985;-88
2022/12/23 15:35:51;;;;;;;27.75;12.05;;;;;;;1.07;100.00;100427.23;1768585;79;21038;-89
2022/12/23 15:38:37;;;;;;;24.18;10.82;;;;;;;0.93;100.00;100416.23;1794892;78;20987;-89
2022/12/23 15:41:21;;;;;;;18.42;7.95;;;;;;;0.77;100.00;100420.28;1790560;78;21444;-88
2022/12/23 15:44:11;;;;;;;17.12;8.10;;;;;;;0.66;100.00;100424.45;1799194;78;20983;-88
2022/12/23 15:46:56;;;;;;;15.93;7.40;;;;;;;0.58;100.00;100419.33;1728629;81;21829;-88
2022/12/23 15:49:40;;;;;;;17.73;7.78;;;;;;;0.54;100.00;100427.51;1712107;81;21009;-88
2022/12/23 15:52:26;;;;;;;16.20;6.72;;;;;;;0.44;100.00;100425.27;1723613;80;21029;-88
2022/12/23 15:55:16;;;;;;;12.73;7.03;;;;;;;0.38;100.00;100424.27;1782017;79;20980;-88
2022/12/23 15:58:01;;;;;;;12.20;5.87;;;;;;;0.29;100.00;100428.23;1777378;79;20987;-88
2022/12/23 16:00:57;;;;;;;17.95;7.70;;;;;;;0.27;100.00;100426.79;1767426;79;21094;-88
2022/12/23 16:03:49;;;;;;;15.23;5.87;;;;;;;0.17;100.00;100426.73;1723181;81;21036;-88
2022/12/23 16:06:34;;;;;;;12.05;5.30;;;;;;;0.09;100.00;100426.13;1719471;81;21064;-88
2022/12/23 16:09:24;;;;;;;14.83;6.53;;;;;;;0.01;100.00;100426.37;1777571;79;21014;-88
2022/12/23 16:12:24;;;;;;;13.88;6.33;;;;;;;-0.06;100.00;100429.06;1780867;78;20980;-88
2022/12/23 16:15:23;;;;;;;13.72;5.87;;;;;;;-0.12;100.00;100429.39;1780687;79;20991;-89
2022/12/23 16:18:24;;;;;;;16.73;6.80;;;;;;;-0.19;100.00;100429.91;1705963;82;21076;-89
2022/12/23 16:21:12;;;;;;;18.85;8.70;;;;;;;-0.26;100.00;100427.75;1715283;81;21009;-89
2022/12/23 16:23:57;;;;;;;17.82;8.30;;;;;;;-0.36;100.00;100432.20;1710281;83;21899;-89
2022/12/23 16:26:41;;;;;;;16.12;7.58;;;;;;;-0.43;100.00;100431.38;1713513;81;21510;-89
2022/12/23 16:29:26;;;;;;;20.32;9.73;;;;;;;-0.53;100.00;100434.48;1776902;79;21054;-88
2022/12/23 16:32:15;;;;;;;21.65;10.43;;;;;;;-0.57;100.00;100427.89;1779865;79;21032;-89
2022/12/23 16:35:10;;;;;;;16.37;9.08;;;;;;;-0.58;100.00;100428.09;1787869;79;21003;-90
2022/12/23 16:38:13;;;;;;;13.55;6.78;;;;;;;-0.63;100.00;100428.70;1765934;79;20976;-88
2022/12/23 16:40:58;;;;;;;15.88;7.70;;;;;;;-0.70;100.00;100429.21;1767561;79;21051;-88
2022/12/23 16:43:44;;;;;;;13.75;6.40;;;;;;;-0.74;100.00;100427.96;1789742;78;20985;-89
2022/12/23 16:46:34;;;;;;;12.75;5.87;;;;;;;-0.80;100.00;100435.50;1786254;79;21015;-89
2022/12/23 16:49:21;;;;;;;13.75;7.10;;;;;;;-0.83;100.00;100435.92;1791060;79;20995;-88
2022/12/23 16:52:06;;;;;;;17.90;7.80;;;;;;;-0.87;100.00;100428.29;1783054;78;20946;-89
2022/12/23 16:54:51;;;;;;;17.98;8.35;;;;;;;-0.85;100.00;100434.77;1775366;79;20979;-88
2022/12/23 16:57:35;;;;;;;20.62;9.68;;;;;;;-0.87;100.00;100425.61;1763606;79;20969;-88
2022/12/23 17:00:20;;;;;;;16.35;8.20;;;;;;;-0.89;100.00;100420.95;1778530;78;21465;-89
2022/12/23 17:03:05;;;;;;;17.05;6.87;;;;;;;-0.89;100.00;100423.64;1799542;78;21537;-89
2022/12/23 17:05:50;;;;;;;12.78;6.10;;;;;;;-0.91;100.00;100417.65;1790045;79;20987;-88
2022/12/23 17:08:34;;;;;;;10.43;5.42;;;;;;;-0.94;100.00;100415.38;1764924;78;21019;-89
2022/12/23 17:11:26;;;;;;;11.95;6.67;;;;;;;-0.97;100.00;100418.97;1764697;79;21606;-88
2022/12/23 17:14:17;;;;;;;19.45;8.55;;;;;;;-0.98;100.00;100415.47;1784713;77;21065;-89
2022/12/23 17:17:06;;;;;;;21.95;9.73;;;;;;;-1.02;100.00;100416.89;1764888;79;21461;-88
2022/12/23 17:19:51;;;;;;;33.90;13.35;;;;;;;-1.05;100.00;100407.92;1781370;79;21038;-89
2022/12/23 17:22:35;;;;;;;43.20;16.27;;;;;;;-1.08;100.00;100417.72;1795518;78;21025;-89
2022/12/23 17:25:20;;;;;;;20.37;9.60;;;;;;;-1.07;100.00;100418.02;1763350;79;21002;-89
2022/12/23 17:28:08;;;;;;;15.63;7.05;;;;;;;-1.12;100.00;100416.47;1770901;79;20982;-89
2022/12/23 17:30:53;;;;;;;14.87;6.65;;;;;;;-1.15;100.00;100420.38;1696053;82;21025;-88
2022/12/23 17:33:38;;;;;;;10.15;5.25;;;;;;;-1.16;100.00;100417.41;1718729;81;21039;-88
2022/12/23 17:36:23;;;;;;;10.50;5.33;;;;;;;-1.18;100.00;100418.64;1719716;82;21001;-88
2022/12/23 17:39:09;;;;;;;15.03;7.17;;;;;;;-1.22;100.00;100414.70;1721994;80;21015;-89
2022/12/23 17:41:54;;;;;;;17.05;7.05;;;;;;;-1.25;100.00;100412.43;1795516;78;21477;-88
2022/12/23 17:44:38;;;;;;;15.53;7.97;;;;;;;-1.32;100.00;100414.56;1781179;79;20994;-89
2022/12/23 17:47:23;;;;;;;19.70;7.62;;;;;;;-1.37;100.00;100408.98;1786708;79;21039;-88
2022/12/23 17:50:10;;;;;;;15.48;7.37;;;;;;;-1.40;100.00;100411.26;1794464;79;20959;-89
2022/12/23 17:53:05;;;;;;;15.55;7.75;;;;;;;-1.46;100.00;100410.70;1768333;79;20983;-89
2022/12/23 17:55:50;;;;;;;16.57;8.05;;;;;;;-1.46;100.00;100410.19;1796166;76;20998;-89
2022/12/23 20:02:57;;;;;;;30.97;14.10;;;;;;;-3.86;100.00;100425.34;1820948;77;25617;-83
2022/12/23 20:05:49;;;;;;;47.50;20.20;;;;;;;-3.76;100.00;100431.22;1777701;79;20999;-83
2022/12/23 20:08:34;;;;;;;51.37;23.62;;;;;;;-3.67;100.00;100432.78;1753491;80;21539;-83
2022/12/23 20:11:22;;;;;;;69.03;32.58;;;;;;;-3.54;100.00;100430.25;1727278;80;21441;-83
2022/12/23 20:14:07;;;;;;;76.65;34.92;;;;;;;-3.34;100.00;100427.84;1739128;81;21010;-83
2022/12/23 20:16:52;;;;;;;72.03;31.42;;;;;;;-3.20;100.00;100427.97;1708979;80;21014;-83
2022/12/23 20:19:38;;;;;;;61.15;28.60;;;;;;;-3.05;100.00;100435.41;1730313;80;21526;-83
2022/12/23 20:22:23;;;;;;;47.27;22.93;;;;;;;-2.86;100.00;100431.28;1734779;80;21070;-83
2022/12/23 20:25:08;;;;;;;36.77;18.37;;;;;;;-2.74;100.00;100433.77;1701045;82;21054;-83
2022/12/23 20:27:53;;;;;;;31.55;14.20;;;;;;;-2.62;100.00;100427.38;1736660;80;20959;-83
2022/12/23 20:30:38;;;;;;;33.18;13.88;;;;;;;-2.50;100.00;100426.32;1731033;81;21066;-83
2022/12/23 20:33:23;;;;;;;30.20;13.48;;;;;;;-2.44;100.00;100433.59;1729646;80;21928;-83
2022/12/23 20:36:09;;;;;;;31.97;14.93;;;;;;;-2.36;100.00;100428.08;1735113;80;21027;-84
2022/12/23 20:38:54;;;;;;;35.30;15.25;;;;;;;-2.27;100.00;100437.63;1733104;80;21071;-83
2022/12/23 20:41:39;;;;;;;32.33;14.68;;;;;;;-2.12;100.00;100434.83;1731409;80;21011;-83
2022/12/23 20:44:24;;;;;;;31.17;14.95;;;;;;;-2.07;100.00;100438.27;1731386;81;21026;-83
2022/12/23 20:47:10;;;;;;;26.60;12.82;;;;;;;-1.99;100.00;100434.91;1713808;80;21049;-83
2022/12/23 20:49:55;;;;;;;28.02;12.78;;;;;;;-1.85;100.00;100433.66;1712809;83;21002;-83
2022/12/23 20:52:40;;;;;;;27.20;11.88;;;;;;;-1.71;100.00;100438.55;1735722;80;21015;-83
2022/12/23 20:55:24;;;;;;;38.80;17.32;;;;;;;-1.61;100.00;100433.64;1733884;80;21087;-84
2022/12/23 21:01:12;;;;;;;46.13;21.57;;;;;;;-1.30;100.00;100431.28;1736783;80;21061;-83
2022/12/23 21:03:59;;;;;;;46.88;22.17;;;;;;;-1.20;100.00;100431.41;1742627;80;21461;-83
2022/12/23 21:06:47;;;;;;;74.53;30.77;;;;;;;-1.19;100.00;100430.37;1738268;80;21019;-83
2022/12/23 21:09:32;;;;;;;54.20;26.05;;;;;;;-1.13;100.00;100433.60;1722369;81;21052;-84
2022/12/23 21:12:17;;;;;;;57.90;26.75;;;;;;;-1.07;100.00;100422.57;1733500;80;20968;-84
2022/12/23 21:15:02;;;;;;;61.92;28.47;;;;;;;-1.03;100.00;100425.98;1732127;80;21010;-83
2022/12/23 21:17:47;;;;;;;64.55;30.45;;;;;;;-0.99;100.00;100423.22;1682440;83;21050;-84
2022/12/23 21:20:31;;;;;;;80.65;33.83;;;;;;;-0.99;100.00;100423.70;1735373;80;21015;-84
2022/12/23 21:23:16;;;;;;;78.70;34.00;;;;;;;-0.97;100.00;100419.79;1736228;80;21492;-84
2022/12/23 21:26:19;;;;;;;68.35;29.42;;;;;;;-0.92;100.00;100409.27;1741909;80;21022;-84
2022/12/23 21:29:05;;;;;;;77.95;30.95;;;;;;;-0.88;100.00;100407.84;1738736;81;21585;-84
2022/12/23 21:31:50;;;;;;;74.82;30.77;;;;;;;-0.79;100.00;100406.28;1742492;79;21560;-83
2022/12/23 21:34:35;;;;;;;65.70;27.30;;;;;;;-0.76;100.00;100400.53;1755251;80;21035;-83
2022/12/23 21:37:20;;;;;;;60.65;24.45;;;;;;;-0.72;100.00;100402.60;1699808;83;21058;-83